Time;durP1;ratioP1;P1;durP2;ratioP2;P2;SDS_P1;SDS_P2;PMS_P1;PMS_P2;Temp;Humidity;BMP_temperature;BMP_pressure;BME280_temperature;BME280_humidity;BME280_pressure;Samples;Min_cycle;Max_cycle;Signal;HPM_P1;HPM_P2
2023/11/17 00:02:20;;;;;;;1.03;0.77;;;4.30;99.90;;;;;;5001420;28;20223;-52
2023/11/17 00:04:47;;;;;;;0.90;0.87;;;4.40;99.90;;;;;;5038852;28;20198;-50
2023/11/17 00:07:16;;;;;;;1.97;1.00;;;4.40;99.90;;;;;;5039868;28;20215;-52
2023/11/17 00:09:43;;;;;;;0.93;0.83;;;4.30;99.90;;;;;;5039493;28;20190;-46
2023/11/17 00:12:09;;;;;;;0.70;0.60;;;4.30;99.90;;;;;;5041609;28;20211;-44
2023/11/17 00:14:37;;;;;;;0.90;0.90;;;4.30;99.90;;;;;;5038143;28;20222;-45
2023/11/17 00:17:05;;;;;;;1.03;0.83;;;4.30;99.90;;;;;;5011866;28;20233;-44
2023/11/17 00:19:32;;;;;;;1.90;1.00;;;4.30;99.90;;;;;;5035736;28;20191;-46
2023/11/17 00:21:58;;;;;;;1.40;0.83;;;4.30;99.90;;;;;;5040245;28;20196;-43
2023/11/17 00:24:27;;;;;;;1.67;1.17;;;4.30;99.90;;;;;;5038972;28;20796;-49
2023/11/17 00:26:54;;;;;;;1.03;0.93;;;4.30;99.90;;;;;;5039094;28;20211;-46
2023/11/17 00:29:21;;;;;;;1.20;1.07;;;4.30;99.90;;;;;;5039327;28;20629;-51
2023/11/17 00:31:48;;;;;;;1.30;1.20;;;4.30;99.90;;;;;;5042168;28;20306;-46
2023/11/17 00:34:15;;;;;;;1.10;1.07;;;4.30;99.90;;;;;;5009095;28;20218;-49
2023/11/17 00:36:44;;;;;;;1.30;1.20;;;4.30;99.90;;;;;;5039006;28;20273;-46
2023/11/17 00:39:14;;;;;;;1.10;0.97;;;4.30;99.90;;;;;;5041327;28;20198;-48
2023/11/17 00:41:43;;;;;;;2.10;1.00;;;4.30;99.90;;;;;;5037278;28;20281;-43
2023/11/17 00:44:10;;;;;;;0.90;0.90;;;4.20;99.90;;;;;;5041094;28;20234;-50
2023/11/17 00:46:45;;;;;;;1.40;0.90;;;4.30;99.90;;;;;;5037948;28;21001;-47
2023/11/17 00:49:12;;;;;;;2.10;1.13;;;4.30;99.90;;;;;;5010316;28;20219;-51
2023/11/17 00:51:40;;;;;;;2.13;0.83;;;4.30;99.90;;;;;;5037072;28;20849;-44
2023/11/17 00:54:07;;;;;;;4.30;1.00;;;4.30;99.90;;;;;;5041515;28;20203;-48
2023/11/17 00:56:34;;;;;;;1.07;1.00;;;4.30;99.90;;;;;;5035495;28;20273;-44
2023/11/17 00:59:03;;;;;;;1.20;1.10;;;4.30;99.90;;;;;;5040372;28;20199;-43
2023/11/17 01:01:30;;;;;;;0.80;0.80;;;4.30;99.90;;;;;;5035931;28;20199;-45
2023/11/17 01:03:57;;;;;;;2.67;1.33;;;4.30;99.90;;;;;;5011152;28;20199;-44
2023/11/17 01:06:24;;;;;;;0.90;0.90;;;4.30;99.90;;;;;;5030938;28;20239;-52
2023/11/17 01:08:50;;;;;;;1.27;1.17;;;4.30;99.90;;;;;;5042780;28;20226;-47
2023/11/17 01:11:17;;;;;;;1.10;1.00;;;4.30;99.90;;;;;;5040362;28;20954;-50
2023/11/17 01:13:44;;;;;;;1.70;0.80;;;4.30;99.90;;;;;;5042864;28;20245;-43
2023/11/17 01:16:16;;;;;;;0.60;0.60;;;4.30;99.90;;;;;;5044263;28;20241;-51
2023/11/17 01:18:43;;;;;;;1.03;0.97;;;4.30;99.90;;;;;;5039913;28;20214;-48
2023/11/17 01:21:10;;;;;;;1.23;0.90;;;4.30;99.90;;;;;;5008709;28;20736;-49
2023/11/17 01:23:37;;;;;;;1.20;1.10;;;4.30;99.90;;;;;;5039250;28;20339;-49
2023/11/17 01:26:04;;;;;;;0.70;0.70;;;4.30;99.90;;;;;;5044716;28;20196;-47
2023/11/17 01:28:31;;;;;;;0.93;0.93;;;4.30;99.90;;;;;;5040241;28;20222;-46
2023/11/17 01:30:59;;;;;;;1.20;1.10;;;4.30;99.90;;;;;;5042924;28;20298;-43
2023/11/17 01:33:27;;;;;;;0.90;0.90;;;4.30;99.90;;;;;;5038956;28;20211;-54
2023/11/17 01:35:54;;;;;;;1.10;1.00;;;4.30;99.90;;;;;;5013588;28;20218;-44
2023/11/17 01:38:21;;;;;;;1.43;0.90;;;4.30;99.90;;;;;;5040369;28;20701;-50
2023/11/17 01:40:48;;;;;;;2.10;1.10;;;4.30;99.90;;;;;;5042853;28;20203;-46
2023/11/17 01:43:16;;;;;;;1.70;1.00;;;4.30;99.90;;;;;;5042895;28;20262;-52
2023/11/17 01:45:44;;;;;;;2.13;1.07;;;4.30;99.90;;;;;;5041895;28;20187;-44
2023/11/17 01:48:11;;;;;;;0.90;0.90;;;4.30;99.90;;;;;;5040519;28;20224;-49
2023/11/17 01:50:40;;;;;;;1.43;1.13;;;4.30;99.90;;;;;;5040992;28;20187;-46
2023/11/17 01:53:08;;;;;;;1.10;1.00;;;4.30;99.90;;;;;;5010477;28;20213;-42
2023/11/17 01:55:35;;;;;;;1.17;0.90;;;4.40;99.90;;;;;;5037827;28;20743;-43
2023/11/17 01:58:02;;;;;;;1.10;0.90;;;4.30;99.90;;;;;;5042178;28;20218;-47
2023/11/17 02:00:29;;;;;;;1.03;0.93;;;4.40;99.90;;;;;;5037741;28;20195;-51
2023/11/17 02:02:56;;;;;;;0.83;0.83;;;4.30;99.90;;;;;;5041819;28;20199;-45
2023/11/17 02:05:26;;;;;;;1.30;1.17;;;4.30;99.90;;;;;;5039937;28;20192;-52
2023/11/17 02:08:19;;;;;;;1.17;1.07;;;4.30;99.90;;;;;;5011649;28;20223;-47
2023/11/17 02:10:55;;;;;;;0.90;0.70;;;4.40;99.90;;;;;;5039917;28;20199;-47
2023/11/17 02:13:26;;;;;;;0.83;0.83;;;4.40;99.90;;;;;;5041741;28;20274;-50
2023/11/17 02:15:55;;;;;;;0.80;0.80;;;4.40;99.90;;;;;;5042106;28;20253;-45
2023/11/17 02:18:23;;;;;;;0.97;0.90;;;4.40;99.90;;;;;;5040684;28;20211;-52
2023/11/17 02:20:53;;;;;;;1.67;0.77;;;4.30;99.90;;;;;;5041299;28;20736;-42
2023/11/17 02:23:24;;;;;;;1.37;1.00;;;4.40;99.90;;;;;;5009836;28;20761;-53
2023/11/17 02:26:15;;;;;;;1.30;1.00;;;4.40;99.90;;;;;;5041107;28;20202;-45
2023/11/17 02:28:50;;;;;;;1.23;1.13;;;4.40;99.90;;;;;;5040309;28;20846;-46
2023/11/17 02:31:25;;;;;;;0.87;0.87;;;4.30;99.90;;;;;;5039921;28;20297;-52
2023/11/17 02:33:56;;;;;;;0.80;0.80;;;4.30;99.90;;;;;;5042756;28;20269;-55
2023/11/17 02:36:26;;;;;;;1.07;1.03;;;4.40;99.90;;;;;;5063238;28;20202;-53
2023/11/17 02:38:57;;;;;;;1.13;1.00;;;4.40;99.90;;;;;;5014105;28;20216;-50
2023/11/17 02:41:32;;;;;;;1.30;1.20;;;4.40;99.90;;;;;;5037230;28;20192;-54
2023/11/17 02:44:02;;;;;;;1.43;1.07;;;4.30;99.90;;;;;;5039025;28;20187;-45
2023/11/17 02:46:32;;;;;;;0.93;0.93;;;4.30;99.90;;;;;;5035965;28;20230;-54
2023/11/17 02:49:09;;;;;;;1.07;1.07;;;4.30;99.90;;;;;;5038649;28;20560;-45
2023/11/17 02:51:43;;;;;;;2.53;1.17;;;4.30;99.90;;;;;;5035887;28;20314;-49
2023/11/17 02:54:13;;;;;;;1.40;1.23;;;4.30;99.90;;;;;;5015779;28;20211;-46
2023/11/17 02:56:40;;;;;;;1.40;1.10;;;4.30;99.90;;;;;;5039479;28;20211;-48
2023/11/17 02:59:09;;;;;;;1.30;1.20;;;4.30;99.90;;;;;;5041685;28;20225;-48
2023/11/17 03:01:39;;;;;;;1.17;1.10;;;4.30;99.90;;;;;;5037046;28;20195;-45
2023/11/17 03:04:13;;;;;;;3.40;0.90;;;4.30;99.90;;;;;;5042434;28;20192;-52
2023/11/17 03:06:45;;;;;;;1.30;1.20;;;4.40;99.90;;;;;;5038419;28;20223;-48
2023/11/17 03:09:14;;;;;;;0.97;0.97;;;4.40;99.90;;;;;;5015906;28;20209;-52
2023/11/17 03:11:42;;;;;;;1.23;1.13;;;4.30;99.90;;;;;;5040006;28;20268;-44
2023/11/17 03:14:09;;;;;;;2.97;1.33;;;4.30;99.90;;;;;;5041987;28;20194;-46
2023/11/17 03:16:38;;;;;;;1.30;1.20;;;4.30;99.90;;;;;;5038433;28;20276;-46
2023/11/17 03:19:10;;;;;;;2.50;1.17;;;4.30;99.90;;;;;;5042912;28;20191;-47
2023/11/17 03:21:40;;;;;;;1.50;1.40;;;4.30;99.90;;;;;;5037139;28;20199;-49
2023/11/17 03:24:14;;;;;;;1.07;1.07;;;4.30;99.90;;;;;;5041441;28;20229;-43
2023/11/17 03:26:43;;;;;;;1.53;1.20;;;4.30;99.90;;;;;;5019208;28;20219;-43
2023/11/17 03:29:11;;;;;;;1.60;1.30;;;4.30;99.90;;;;;;5041697;28;20568;-47
2023/11/17 03:31:39;;;;;;;1.00;1.00;;;4.30;99.90;;;;;;5036365;28;20328;-43
2023/11/17 03:34:09;;;;;;;1.20;1.10;;;4.30;99.90;;;;;;5042805;28;20222;-43
2023/11/17 03:36:38;;;;;;;1.67;1.57;;;4.30;99.90;;;;;;5036621;28;20203;-48
2023/11/17 03:39:12;;;;;;;1.20;1.10;;;4.30;99.90;;;;;;5041199;28;20219;-46
2023/11/17 03:41:39;;;;;;;1.73;1.20;;;4.30;99.90;;;;;;5013390;28;20210;-43
2023/11/17 03:44:07;;;;;;;1.30;1.20;;;4.30;99.90;;;;;;5042242;28;20203;-43
2023/11/17 03:46:35;;;;;;;1.30;1.20;;;4.30;99.90;;;;;;5035380;28;20183;-49
2023/11/17 03:49:04;;;;;;;1.33;1.20;;;4.30;99.90;;;;;;5042355;28;20196;-45
2023/11/17 03:51:30;;;;;;;1.50;1.20;;;4.30;99.90;;;;;;5036728;28;20215;-50
2023/11/17 03:53:57;;;;;;;1.13;1.10;;;4.30;99.90;;;;;;5041267;28;20670;-48
2023/11/17 03:56:24;;;;;;;1.37;1.10;;;4.30;99.90;;;;;;5011590;28;20215;-53
2023/11/17 03:58:51;;;;;;;1.40;1.30;;;4.30;99.90;;;;;;5041093;28;20205;-43
2023/11/17 04:01:18;;;;;;;2.40;1.20;;;4.30;99.90;;;;;;5041054;28;20195;-53
2023/11/17 04:03:46;;;;;;;1.40;1.30;;;4.30;99.90;;;;;;5040193;28;20932;-43
2023/11/17 04:06:15;;;;;;;1.23;1.17;;;4.30;99.90;;;;;;5041721;28;20202;-53
2023/11/17 04:08:41;;;;;;;1.30;1.20;;;4.30;99.90;;;;;;5039729;28;20300;-49
2023/11/17 04:11:13;;;;;;;1.10;1.10;;;4.30;99.90;;;;;;5010771;28;20210;-43
2023/11/17 04:13:41;;;;;;;1.60;1.50;;;4.30;99.90;;;;;;5037489;28;20247;-46
2023/11/17 04:16:10;;;;;;;1.20;1.20;;;4.30;99.90;;;;;;5041736;28;20213;-46
2023/11/17 04:18:39;;;;;;;1.27;1.17;;;4.30;99.90;;;;;;5037707;28;20230;-43
2023/11/17 04:21:06;;;;;;;1.50;1.40;;;4.30;99.90;;;;;;5040848;28;20568;-44
2023/11/17 04:23:35;;;;;;;1.43;1.33;;;4.30;99.90;;;;;;5035678;28;20180;-44
2023/11/17 04:26:02;;;;;;;1.50;1.40;;;4.30;99.90;;;;;;5040846;28;20226;-48
2023/11/17 04:28:29;;;;;;;2.00;1.67;;;4.30;99.90;;;;;;5006841;28;20306;-53
2023/11/17 04:30:56;;;;;;;1.83;1.67;;;4.30;99.90;;;;;;5025503;28;20222;-46
2023/11/17 04:33:23;;;;;;;1.70;1.60;;;4.30;99.90;;;;;;5035555;28;20211;-46
2023/11/17 04:35:51;;;;;;;2.07;1.77;;;4.20;99.90;;;;;;5038431;28;20226;-52
2023/11/17 04:38:18;;;;;;;1.80;1.63;;;4.30;99.90;;;;;;5041076;28;20218;-47
2023/11/17 04:40:47;;;;;;;1.60;1.50;;;4.20;99.90;;;;;;5039501;28;20203;-53
2023/11/17 04:43:14;;;;;;;2.13;1.93;;;4.20;99.90;;;;;;5014537;28;20196;-50
2023/11/17 04:45:43;;;;;;;1.80;1.67;;;4.20;99.90;;;;;;5044019;28;20224;-55
2023/11/17 04:48:11;;;;;;;2.40;2.20;;;4.20;99.90;;;;;;5042492;28;20887;-49
2023/11/17 04:50:38;;;;;;;1.30;1.20;;;4.20;99.90;;;;;;5044504;28;20278;-50
2023/11/17 04:53:05;;;;;;;2.07;1.47;;;4.20;99.90;;;;;;5043126;28;20300;-45
2023/11/17 04:55:32;;;;;;;2.17;1.73;;;4.20;99.90;;;;;;5042831;28;20191;-43
2023/11/17 04:58:00;;;;;;;1.77;1.67;;;4.20;99.90;;;;;;5013125;28;20350;-45
2023/11/17 05:00:27;;;;;;;1.57;1.47;;;4.20;99.90;;;;;;5046095;28;20656;-48
2023/11/17 05:02:54;;;;;;;1.80;1.70;;;4.10;99.90;;;;;;5041726;28;20183;-45
2023/11/17 05:05:21;;;;;;;2.00;1.90;;;4.20;99.90;;;;;;5044931;28;20250;-50
2023/11/17 05:07:48;;;;;;;2.23;2.03;;;4.20;99.90;;;;;;5042302;28;20219;-53
2023/11/17 05:10:19;;;;;;;1.57;1.47;;;4.10;99.90;;;;;;5043627;28;20187;-50
2023/11/17 05:12:46;;;;;;;1.63;1.53;;;4.10;99.90;;;;;;5012948;28;20305;-52
2023/11/17 05:15:15;;;;;;;1.90;1.70;;;4.10;99.90;;;;;;5043824;28;20279;-53
2023/11/17 05:17:45;;;;;;;1.90;1.80;;;4.10;99.90;;;;;;5032450;28;20277;-47
2023/11/17 05:20:14;;;;;;;1.90;1.80;;;4.20;99.90;;;;;;5044810;28;20225;-45
2023/11/17 05:22:41;;;;;;;1.97;1.60;;;4.20;99.90;;;;;;5034791;28;20211;-48
2023/11/17 05:25:08;;;;;;;2.73;2.00;;;4.10;99.90;;;;;;5045142;28;20196;-48
2023/11/17 05:27:36;;;;;;;1.77;1.67;;;4.10;99.90;;;;;;5010652;28;22157;-45
2023/11/17 05:30:04;;;;;;;2.13;1.77;;;4.20;99.90;;;;;;5046495;28;20257;-45
2023/11/17 05:32:32;;;;;;;2.13;1.93;;;4.10;99.90;;;;;;5038420;28;20224;-54
2023/11/17 05:34:59;;;;;;;3.40;1.70;;;4.10;99.90;;;;;;5028263;28;20210;-43
2023/11/17 05:37:27;;;;;;;2.10;2.00;;;4.10;99.90;;;;;;5031711;28;20294;-45
2023/11/17 05:39:53;;;;;;;2.20;2.00;;;4.20;99.90;;;;;;5040906;28;20203;-51
2023/11/17 05:42:21;;;;;;;1.67;1.57;;;4.20;99.90;;;;;;5030709;28;20232;-47
2023/11/17 05:44:48;;;;;;;2.13;1.97;;;4.20;99.90;;;;;;5004191;28;20204;-49
2023/11/17 05:47:15;;;;;;;3.00;2.10;;;4.20;99.90;;;;;;5042091;28;20215;-48
2023/11/17 05:49:45;;;;;;;2.10;1.90;;;4.10;99.90;;;;;;5043829;28;20195;-47
2023/11/17 05:52:13;;;;;;;2.50;1.60;;;4.10;99.90;;;;;;5034931;28;20266;-50
2023/11/17 05:54:43;;;;;;;1.70;1.60;;;4.10;99.90;;;;;;5042345;28;20203;-42
2023/11/17 05:57:12;;;;;;;2.13;1.93;;;4.10;99.90;;;;;;5023993;28;20290;-46
2023/11/17 05:59:39;;;;;;;1.90;1.80;;;4.10;99.90;;;;;;5013384;28;20832;-48
2023/11/17 06:02:06;;;;;;;2.17;1.97;;;4.10;99.90;;;;;;5032217;28;20199;-50
2023/11/17 06:04:33;;;;;;;1.63;1.47;;;4.10;99.90;;;;;;5036139;28;20214;-45
2023/11/17 06:07:02;;;;;;;1.90;1.80;;;4.10;99.90;;;;;;5043632;28;20272;-47
2023/11/17 06:09:29;;;;;;;2.00;1.90;;;4.10;99.90;;;;;;5031465;28;20218;-42
2023/11/17 06:11:57;;;;;;;1.50;1.40;;;4.10;99.90;;;;;;5032402;28;20208;-46
2023/11/17 06:14:24;;;;;;;2.57;2.37;;;4.00;99.90;;;;;;5027589;28;20203;-43
2023/11/17 06:16:53;;;;;;;1.63;1.53;;;4.10;99.90;;;;;;5028234;28;20847;-47
2023/11/17 06:19:22;;;;;;;3.00;1.80;;;4.10;99.90;;;;;;5034658;28;20199;-46
2023/11/17 06:21:49;;;;;;;1.80;1.70;;;4.10;99.90;;;;;;5040690;28;20200;-46
2023/11/17 06:24:18;;;;;;;2.23;1.60;;;4.10;99.90;;;;;;5035710;28;20294;-43
2023/11/17 06:26:46;;;;;;;1.87;1.77;;;4.10;99.90;;;;;;5039712;28;20313;-46
2023/11/17 06:29:13;;;;;;;1.83;1.60;;;4.10;99.90;;;;;;5034280;28;20199;-49
2023/11/17 06:31:42;;;;;;;2.97;1.67;;;4.10;99.90;;;;;;5006502;28;20231;-47
2023/11/17 06:34:09;;;;;;;1.53;1.43;;;4.10;99.90;;;;;;5034946;28;20654;-46
2023/11/17 06:36:37;;;;;;;2.00;1.90;;;4.10;99.90;;;;;;5035228;28;20203;-45
2023/11/17 06:39:13;;;;;;;2.30;1.80;;;4.10;99.90;;;;;;5035186;28;20207;-47
2023/11/17 06:41:43;;;;;;;2.07;1.97;;;4.10;99.90;;;;;;5039318;28;20203;-49
2023/11/17 06:44:10;;;;;;;3.13;2.03;;;4.10;99.90;;;;;;5034777;28;20287;-46
2023/11/17 06:46:39;;;;;;;2.00;1.80;;;4.10;99.90;;;;;;5003769;28;20203;-50
2023/11/17 06:49:08;;;;;;;2.13;1.87;;;4.10;99.90;;;;;;5031714;28;20752;-47
2023/11/17 06:51:37;;;;;;;1.90;1.80;;;4.10;99.90;;;;;;5025205;28;20406;-44
2023/11/17 06:54:10;;;;;;;3.33;1.77;;;4.10;99.90;;;;;;5034788;28;20300;-47
2023/11/17 06:56:37;;;;;;;1.80;1.70;;;4.10;99.90;;;;;;5037272;28;20199;-46
2023/11/17 06:59:06;;;;;;;1.97;1.77;;;4.10;99.90;;;;;;5034179;28;20569;-46
2023/11/17 07:01:35;;;;;;;3.00;1.83;;;4.10;99.90;;;;;;5014423;28;20195;-43
2023/11/17 07:04:04;;;;;;;2.23;1.70;;;4.10;99.90;;;;;;5032090;28;20197;-48
2023/11/17 07:06:31;;;;;;;2.33;1.97;;;4.10;99.90;;;;;;5029686;28;20199;-43
2023/11/17 07:08:58;;;;;;;1.87;1.57;;;4.10;99.90;;;;;;5026565;28;20214;-44
2023/11/17 07:11:25;;;;;;;4.50;2.33;;;4.10;99.90;;;;;;5032230;28;20199;-43
2023/11/17 07:13:54;;;;;;;2.77;1.83;;;4.10;99.90;;;;;;5036582;28;20210;-48
2023/11/17 07:16:24;;;;;;;2.00;1.90;;;4.10;99.90;;;;;;5036528;28;20195;-42
2023/11/17 07:18:53;;;;;;;2.17;1.93;;;4.10;99.90;;;;;;4990795;28;20250;-51
2023/11/17 07:21:20;;;;;;;1.83;1.73;;;4.10;99.90;;;;;;5032504;28;20207;-51
2023/11/17 07:26:30;;;;;;;1.77;1.67;;;4.10;99.90;;;;;;5031959;28;20203;-43
2023/11/17 07:28:58;;;;;;;3.47;1.53;;;4.00;99.90;;;;;;5029972;28;20211;-44
2023/11/17 07:31:27;;;;;;;1.50;1.40;;;4.00;99.90;;;;;;5032885;28;21033;-42
2023/11/17 07:33:55;;;;;;;2.97;1.73;;;4.00;99.90;;;;;;5003993;28;20211;-42
2023/11/17 07:36:24;;;;;;;1.97;1.80;;;4.00;99.90;;;;;;5034588;28;20204;-42
2023/11/17 07:39:03;;;;;;;2.43;1.63;;;4.00;99.90;;;;;;5039231;28;20208;-46
2023/11/17 07:41:34;;;;;;;1.80;1.70;;;4.00;99.90;;;;;;5031289;28;20214;-42
2023/11/17 07:44:19;;;;;;;1.60;1.47;;;4.00;99.90;;;;;;5038479;28;20199;-43
2023/11/17 07:46:51;;;;;;;2.13;1.93;;;3.90;99.90;;;;;;5033956;28;20305;-46
2023/11/17 07:49:19;;;;;;;2.50;1.73;;;3.90;99.90;;;;;;5002641;28;20196;-42
2023/11/17 07:51:49;;;;;;;2.23;2.03;;;3.90;99.90;;;;;;5040838;28;20191;-44
2023/11/17 07:54:17;;;;;;;2.23;2.00;;;3.90;99.90;;;;;;5032161;28;20306;-42
2023/11/17 07:57:10;;;;;;;2.03;1.80;;;3.90;99.90;;;;;;5031373;28;20223;-43
2023/11/17 07:59:58;;;;;;;1.90;1.80;;;4.00;99.90;;;;;;5043771;28;20191;-43
2023/11/17 08:05:15;;;;;;;3.40;2.23;;;4.00;99.90;;;;;;5009203;28;20209;-40
2023/11/17 08:07:44;;;;;;;2.70;1.97;;;4.00;99.90;;;;;;5038531;28;20218;-42
2023/11/17 08:10:11;;;;;;;2.20;2.00;;;4.00;99.90;;;;;;5040113;28;20191;-42
2023/11/17 08:12:52;;;;;;;2.23;2.07;;;4.00;99.90;;;;;;5031491;28;20893;-42
2023/11/17 08:15:19;;;;;;;3.23;2.33;;;4.00;99.90;;;;;;5032100;28;20194;-41
2023/11/17 08:18:09;;;;;;;2.60;2.40;;;4.00;99.90;;;;;;5037714;28;20306;-41
2023/11/17 08:21:05;;;;;;;2.67;2.47;;;4.10;99.90;;;;;;4984446;28;21533;-44
2023/11/17 08:23:44;;;;;;;2.23;2.13;;;4.10;99.90;;;;;;5042082;28;20940;-45
2023/11/17 08:26:14;;;;;;;2.63;2.43;;;4.10;99.90;;;;;;5044344;28;20191;-41
2023/11/17 08:28:45;;;;;;;2.90;2.70;;;4.00;99.90;;;;;;5024900;28;20226;-43
2023/11/17 08:31:14;;;;;;;2.97;2.67;;;4.10;99.90;;;;;;5045126;28;20234;-43
2023/11/17 08:36:43;;;;;;;4.57;2.73;;;4.00;99.90;;;;;;5000444;28;22726;-45
2023/11/17 08:39:24;;;;;;;2.63;2.43;;;4.00;99.90;;;;;;5042371;28;20222;-44
2023/11/17 08:42:19;;;;;;;3.33;3.03;;;4.00;99.90;;;;;;5041103;28;20208;-43
2023/11/17 08:45:12;;;;;;;3.00;2.80;;;4.00;99.90;;;;;;5027741;28;21064;-43
2023/11/17 08:48:01;;;;;;;3.63;3.30;;;4.00;99.90;;;;;;5032975;28;20215;-45
2023/11/17 08:50:42;;;;;;;4.10;3.80;;;4.00;99.90;;;;;;5030006;28;20191;-43
2023/11/17 08:53:33;;;;;;;3.97;3.67;;;4.00;99.90;;;;;;5009175;28;20215;-43
2023/11/17 08:56:01;;;;;;;3.53;3.33;;;4.00;99.90;;;;;;5031409;28;20231;-42
2023/11/17 08:58:28;;;;;;;4.17;3.87;;;4.00;99.90;;;;;;5030680;28;20322;-44
2023/11/17 09:00:55;;;;;;;3.73;3.43;;;4.00;99.90;;;;;;5039910;28;20218;-41
2023/11/17 09:03:29;;;;;;;4.37;3.97;;;4.10;99.90;;;;;;5032564;28;20200;-44
2023/11/17 09:05:59;;;;;;;3.43;3.13;;;4.10;99.90;;;;;;5042677;28;20195;-42
2023/11/17 09:08:53;;;;;;;3.43;3.23;;;4.20;99.90;;;;;;5015032;28;20899;-42
2023/11/17 09:11:35;;;;;;;3.50;3.20;;;4.20;99.90;;;;;;5034656;28;20202;-43
2023/11/17 09:14:06;;;;;;;2.37;2.20;;;4.20;99.90;;;;;;5039264;28;20223;-41
2023/11/17 09:16:46;;;;;;;3.20;2.37;;;4.20;99.90;;;;;;5042416;28;20199;-41
2023/11/17 09:19:29;;;;;;;2.50;2.30;;;4.20;99.90;;;;;;5033860;28;20187;-43
2023/11/17 09:22:01;;;;;;;3.57;2.27;;;4.30;99.90;;;;;;5032118;28;20227;-41
2023/11/17 09:24:54;;;;;;;2.10;1.90;;;4.30;99.90;;;;;;5014043;28;20207;-45
2023/11/17 09:27:38;;;;;;;4.03;1.77;;;4.30;99.90;;;;;;5034327;28;20930;-43
2023/11/17 09:30:06;;;;;;;1.80;1.70;;;4.40;99.90;;;;;;5028604;28;20211;-43
2023/11/17 09:32:33;;;;;;;1.73;1.60;;;4.40;99.90;;;;;;5029990;28;20203;-43
2023/11/17 09:35:01;;;;;;;2.00;1.80;;;4.40;99.90;;;;;;5036974;28;20273;-41
2023/11/17 09:37:29;;;;;;;1.70;1.60;;;4.40;99.90;;;;;;5032507;28;20226;-43
2023/11/17 09:39:56;;;;;;;1.60;1.50;;;4.40;99.90;;;;;;5013029;28;20277;-43
2023/11/17 09:42:25;;;;;;;1.77;1.67;;;4.40;99.90;;;;;;5028813;28;20204;-41
2023/11/17 09:44:54;;;;;;;1.37;1.27;;;4.40;99.90;;;;;;5035663;28;20221;-43
2023/11/17 09:47:27;;;;;;;1.60;1.37;;;4.50;99.90;;;;;;5038749;28;20235;-43
2023/11/17 09:49:55;;;;;;;1.20;1.10;;;4.50;99.90;;;;;;5034261;28;20592;-43
2023/11/17 09:52:23;;;;;;;1.20;1.13;;;4.50;99.90;;;;;;5038282;28;20195;-42
2023/11/17 09:54:53;;;;;;;3.20;1.07;;;4.50;99.90;;;;;;5009242;28;20747;-46
2023/11/17 09:57:21;;;;;;;3.13;1.20;;;4.60;99.90;;;;;;5035390;28;20215;-42
2023/11/17 09:59:49;;;;;;;2.00;1.20;;;4.50;99.90;;;;;;5033333;28;20214;-44
2023/11/17 10:02:20;;;;;;;1.43;1.20;;;4.60;99.90;;;;;;5043128;28;20206;-44
2023/11/17 10:04:48;;;;;;;1.20;1.10;;;4.60;99.90;;;;;;5033725;28;20193;-44
2023/11/17 10:07:15;;;;;;;1.70;1.30;;;4.70;99.90;;;;;;5037986;28;20218;-43
2023/11/17 10:09:44;;;;;;;1.37;1.20;;;4.70;99.90;;;;;;4999782;28;20297;-43
2023/11/17 10:12:14;;;;;;;3.80;1.23;;;4.80;99.90;;;;;;5036031;28;20673;-43
2023/11/17 10:14:43;;;;;;;0.90;0.90;;;4.70;99.90;;;;;;5027583;28;20231;-44
2023/11/17 10:17:12;;;;;;;1.57;0.90;;;4.80;99.90;;;;;;5043943;28;20219;-44
2023/11/17 10:19:41;;;;;;;1.23;1.07;;;4.80;99.90;;;;;;5030311;28;20657;-44
2023/11/17 10:22:13;;;;;;;1.93;1.10;;;4.80;99.90;;;;;;5035915;28;20206;-44
2023/11/17 10:24:47;;;;;;;1.10;1.00;;;4.90;99.90;;;;;;5028382;28;20237;-48
2023/11/17 10:27:20;;;;;;;1.27;1.17;;;5.00;99.90;;;;;;5013461;28;20733;-45
2023/11/17 10:29:59;;;;;;;1.03;1.03;;;5.00;99.90;;;;;;5034499;28;20219;-45
2023/11/17 10:32:28;;;;;;;1.03;0.90;;;5.00;99.90;;;;;;5032318;28;20219;-45
2023/11/17 10:35:16;;;;;;;1.30;1.20;;;5.10;99.90;;;;;;5041506;28;20254;-45
2023/11/17 10:37:50;;;;;;;1.53;1.13;;;5.10;99.90;;;;;;5032070;28;21052;-43
2023/11/17 10:40:28;;;;;;;1.17;0.97;;;5.10;99.90;;;;;;5021728;28;20210;-44
2023/11/17 10:43:14;;;;;;;1.63;1.53;;;5.20;99.90;;;;;;5036075;28;20198;-46
2023/11/17 10:45:59;;;;;;;1.90;1.10;;;5.20;99.90;;;;;;5029691;28;20832;-42
2023/11/17 10:48:35;;;;;;;1.80;1.00;;;5.20;99.90;;;;;;5019321;28;20223;-41
2023/11/17 10:51:06;;;;;;;1.03;1.00;;;5.30;99.90;;;;;;5041780;28;20283;-44
2023/11/17 10:53:46;;;;;;;1.50;1.40;;;5.30;99.90;;;;;;5021253;28;20726;-42
2023/11/17 10:56:27;;;;;;;1.47;1.10;;;5.30;99.90;;;;;;5020956;28;20202;-41
2023/11/17 10:58:55;;;;;;;1.03;0.93;;;5.30;99.90;;;;;;5034244;28;20620;-41
2023/11/17 11:01:29;;;;;;;1.47;1.10;;;5.40;99.90;;;;;;5028497;28;20978;-40
2023/11/17 11:03:57;;;;;;;1.03;0.97;;;5.40;99.90;;;;;;5032381;28;20243;-43
2023/11/17 11:06:26;;;;;;;1.90;0.90;;;5.40;99.90;;;;;;5036290;28;20197;-43
2023/11/17 11:08:58;;;;;;;1.90;1.10;;;5.50;99.90;;;;;;5036965;28;20200;-47
2023/11/17 11:11:26;;;;;;;1.90;1.10;;;5.50;99.90;;;;;;4999399;28;20198;-42
2023/11/17 11:14:07;;;;;;;1.00;0.87;;;5.50;99.90;;;;;;5038872;28;20233;-43
2023/11/17 11:16:48;;;;;;;1.20;1.10;;;5.60;99.90;;;;;;5029130;28;20203;-45
2023/11/17 11:19:16;;;;;;;1.10;1.00;;;5.60;99.90;;;;;;5032229;28;20199;-41
2023/11/17 11:21:48;;;;;;;1.77;1.20;;;5.60;99.90;;;;;;5035706;28;20188;-43
2023/11/17 11:24:17;;;;;;;1.20;1.10;;;5.60;99.90;;;;;;5024138;28;20203;-44
2023/11/17 11:26:45;;;;;;;1.70;1.43;;;5.60;99.90;;;;;;5023958;28;20309;-45
2023/11/17 11:29:14;;;;;;;2.10;1.53;;;5.60;99.90;;;;;;5007571;28;20261;-45
2023/11/17 11:31:41;;;;;;;2.43;1.23;;;5.60;99.90;;;;;;5029868;28;20637;-42
2023/11/17 11:34:09;;;;;;;1.47;1.20;;;5.60;99.90;;;;;;5035181;28;20753;-45
2023/11/17 11:36:36;;;;;;;1.70;1.30;;;5.60;99.90;;;;;;5026492;28;20199;-45
2023/11/17 11:39:03;;;;;;;1.30;1.20;;;5.60;99.90;;;;;;5039241;28;20199;-44
2023/11/17 11:41:31;;;;;;;1.47;1.20;;;5.70;99.90;;;;;;5020491;28;20218;-43
2023/11/17 11:43:58;;;;;;;1.63;1.13;;;5.70;99.90;;;;;;5011376;28;20210;-48
2023/11/17 11:46:28;;;;;;;1.30;1.20;;;5.70;99.90;;;;;;5033317;28;20183;-44
2023/11/17 11:48:59;;;;;;;1.17;1.07;;;5.80;99.90;;;;;;5028595;28;20281;-42
2023/11/17 11:51:29;;;;;;;5.23;1.17;;;5.80;99.90;;;;;;5028527;28;20432;-45
2023/11/17 11:53:58;;;;;;;1.23;1.13;;;5.80;99.90;;;;;;5040418;28;20223;-45
2023/11/17 11:56:29;;;;;;;0.80;0.80;;;5.80;99.90;;;;;;5024132;28;20227;-45
2023/11/17 11:58:57;;;;;;;0.63;0.63;;;5.80;99.90;;;;;;5001782;28;20215;-44
2023/11/17 12:01:24;;;;;;;1.93;0.90;;;5.80;99.90;;;;;;5030238;28;20571;-43
2023/11/17 12:03:54;;;;;;;0.93;0.90;;;5.80;99.90;;;;;;5032066;28;20284;-43
2023/11/17 12:06:22;;;;;;;1.20;1.10;;;5.70;99.90;;;;;;5033431;28;20204;-42
2023/11/17 12:08:53;;;;;;;1.23;0.90;;;5.80;99.90;;;;;;5034267;28;20640;-46
2023/11/17 12:11:21;;;;;;;0.80;0.80;;;5.80;99.90;;;;;;5032746;28;20202;-42
2023/11/17 12:13:49;;;;;;;1.33;1.23;;;5.80;99.90;;;;;;5014553;28;20203;-46
2023/11/17 12:16:19;;;;;;;1.20;0.80;;;5.90;99.90;;;;;;5030381;28;23068;-42
2023/11/17 12:18:48;;;;;;;1.53;1.00;;;5.90;99.90;;;;;;5033658;28;20616;-43
2023/11/17 12:21:24;;;;;;;2.10;0.90;;;5.90;99.90;;;;;;5036841;28;20896;-47
2023/11/17 12:23:55;;;;;;;0.67;0.67;;;6.00;99.90;;;;;;5033981;28;21154;-43
2023/11/17 12:26:24;;;;;;;1.60;0.80;;;6.00;99.90;;;;;;5040256;28;20192;-45
2023/11/17 12:28:52;;;;;;;1.60;0.97;;;6.00;99.90;;;;;;5015139;28;21176;-43
2023/11/17 12:31:19;;;;;;;0.70;0.70;;;6.00;99.90;;;;;;5033544;28;20210;-43
2023/11/17 12:33:49;;;;;;;0.80;0.80;;;5.90;99.90;;;;;;5036562;28;20924;-43
2023/11/17 12:36:18;;;;;;;1.03;0.87;;;5.90;99.90;;;;;;5031626;28;20709;-48
2023/11/17 12:38:53;;;;;;;1.00;0.90;;;5.90;99.90;;;;;;5037318;28;20223;-42
2023/11/17 12:41:22;;;;;;;0.70;0.70;;;5.90;99.90;;;;;;5037805;28;20249;-47
2023/11/17 12:43:51;;;;;;;0.80;0.80;;;5.90;99.90;;;;;;5025269;28;20214;-44
2023/11/17 12:46:18;;;;;;;1.13;1.03;;;5.90;99.90;;;;;;5009685;28;20203;-48
2023/11/17 12:48:47;;;;;;;2.43;1.20;;;5.90;99.90;;;;;;5038864;28;20219;-41
2023/11/17 12:51:24;;;;;;;0.87;0.80;;;5.90;99.90;;;;;;5031983;28;20200;-49
2023/11/17 12:53:54;;;;;;;1.00;1.00;;;6.00;99.90;;;;;;5040049;28;20202;-42
2023/11/17 12:56:22;;;;;;;0.77;0.77;;;5.90;99.90;;;;;;5039002;28;20206;-49
2023/11/17 12:58:49;;;;;;;0.90;0.90;;;5.90;99.90;;;;;;5030671;28;20231;-44
2023/11/17 13:01:17;;;;;;;2.73;0.80;;;5.90;99.90;;;;;;5009826;28;20211;-47
2023/11/17 13:03:46;;;;;;;1.13;0.83;;;5.90;99.90;;;;;;5041275;28;20195;-43
2023/11/17 13:06:14;;;;;;;1.53;1.03;;;5.80;99.90;;;;;;5035053;28;20199;-44
2023/11/17 13:08:42;;;;;;;1.33;1.10;;;5.80;99.90;;;;;;5041640;28;20299;-43
2023/11/17 13:11:12;;;;;;;1.23;1.10;;;5.80;99.90;;;;;;5029087;28;21639;-44
2023/11/17 13:13:40;;;;;;;1.30;1.20;;;5.80;99.90;;;;;;5042256;28;20200;-44
2023/11/17 13:16:13;;;;;;;1.40;0.83;;;5.70;99.90;;;;;;5006048;28;20281;-45
2023/11/17 13:18:41;;;;;;;0.80;0.80;;;5.70;99.90;;;;;;5040336;28;20598;-44
2023/11/17 13:21:09;;;;;;;0.83;0.83;;;5.70;99.90;;;;;;5033708;28;20207;-50
2023/11/17 13:23:36;;;;;;;0.90;0.90;;;5.70;99.90;;;;;;5041678;28;20253;-44